createdAt,value
2022-12-15T00:00:04.329Z,52788.53
2022-12-15T00:01:07.247Z,52833.62
2022-12-15T00:02:10.239Z,52818.59
2022-12-15T00:03:13.132Z,52786.52
2022-12-15T00:04:15.717Z,52759.47
2022-12-15T00:05:18.604Z,52797.55
2022-12-15T00:06:21.559Z,52745.44
2022-12-15T00:07:24.136Z,52756.46
2022-12-15T00:08:27.115Z,52778.51
2022-12-15T00:09:31.026Z,52747.45
2022-12-15T00:10:34.099Z,52775.50
2022-12-15T00:11:36.965Z,52779.51
2022-12-15T00:12:39.637Z,52821.59
2022-12-15T00:13:42.307Z,52827.61
2022-12-15T00:14:45.075Z,52814.58
2022-12-15T00:15:48.137Z,52815.58
2022-12-15T00:16:51.034Z,52817.59
2022-12-15T00:17:53.810Z,52821.59
2022-12-15T00:18:56.987Z,52750.45
2022-12-15T00:19:59.758Z,52857.67
2022-12-15T00:21:02.530Z,52803.56
2022-12-15T00:22:05.201Z,52887.73
2022-12-15T00:23:07.870Z,52868.69
2022-12-15T00:24:10.948Z,52821.59
2022-12-15T00:25:13.961Z,52797.55
2022-12-15T00:26:16.599Z,52819.59
2022-12-15T00:27:19.163Z,52811.57
2022-12-15T00:28:22.241Z,52794.54
2022-12-15T00:29:25.322Z,52792.54
2022-12-15T00:30:27.999Z,52822.59
2022-12-15T00:31:30.940Z,52842.64
2022-12-15T00:32:33.535Z,52844.64
2022-12-15T00:33:36.205Z,52832.62
2022-12-15T00:34:38.770Z,52828.61
2022-12-15T00:35:41.542Z,52805.56
2022-12-15T00:36:44.117Z,52812.58
2022-12-15T00:37:48.420Z,52789.53
2022-12-15T00:38:51.092Z,52779.51
2022-12-15T00:39:53.865Z,52763.48
2022-12-15T00:40:56.432Z,52781.52
2022-12-15T00:41:59.202Z,52733.42
2022-12-15T00:43:01.980Z,52793.54
2022-12-15T00:44:04.850Z,52886.72
2022-12-15T00:45:07.523Z,52867.68
2022-12-15T00:46:10.343Z,52813.58
2022-12-15T00:47:13.069Z,52854.66
2022-12-15T00:48:16.152Z,52821.59
2022-12-15T00:49:18.811Z,52797.55
2022-12-15T00:50:21.896Z,52744.44
2022-12-15T00:51:24.565Z,52775.50
2022-12-15T00:52:27.228Z,52789.53
2022-12-15T00:53:30.201Z,52815.58
2022-12-15T00:54:33.087Z,52789.53
2022-12-15T00:55:36.368Z,52736.43
2022-12-15T00:56:39.242Z,52764.48
2022-12-15T00:57:41.912Z,52710.37
2022-12-15T00:58:44.690Z,52703.36
2022-12-15T00:59:47.662Z,52675.30
2022-12-15T01:00:50.744Z,52734.42
2022-12-15T01:01:53.532Z,52690.33
2022-12-15T01:02:56.472Z,52688.33
2022-12-15T01:03:59.363Z,52745.44
2022-12-15T01:05:01.935Z,52733.42
2022-12-15T01:06:05.224Z,52775.50
2022-12-15T01:07:07.781Z,52807.57
2022-12-15T01:08:10.445Z,52849.65
2022-12-15T01:09:13.331Z,52764.48
2022-12-15T01:10:16.216Z,52753.46
2022-12-15T01:11:19.281Z,52742.44
2022-12-15T01:12:22.262Z,52729.41
2022-12-15T01:13:25.133Z,52701.36
2022-12-15T01:14:27.710Z,52690.33
2022-12-15T01:15:30.686Z,52691.34
2022-12-15T01:16:34.010Z,52732.42
2022-12-15T01:17:36.938Z,52685.32
2022-12-15T01:18:39.921Z,52712.38
2022-12-15T01:19:42.787Z,52678.31
2022-12-15T01:20:45.775Z,52734.42
2022-12-15T01:21:48.952Z,52733.42
2022-12-15T01:22:51.721Z,52695.34
2022-12-15T01:23:54.610Z,52721.39
2022-12-15T01:24:57.473Z,52704.36
2022-12-15T01:26:00.044Z,52732.42
2022-12-15T01:27:03.018Z,52740.43
2022-12-15T01:28:05.684Z,52706.36
2022-12-15T01:29:08.255Z,52711.37
2022-12-15T01:30:10.924Z,52704.36
2022-12-15T01:31:13.766Z,52750.45
2022-12-15T01:32:16.571Z,52769.49
2022-12-15T01:33:19.239Z,52709.37
2022-12-15T01:34:22.015Z,52739.43
2022-12-15T01:35:24.683Z,52739.43
2022-12-15T01:36:27.353Z,52745.44
2022-12-15T01:37:30.329Z,52717.39
2022-12-15T01:38:33.009Z,52725.40
2022-12-15T01:39:35.665Z,52737.43
2022-12-15T01:40:38.244Z,52739.43
2022-12-15T01:41:41.016Z,52709.37
2022-12-15T01:42:44.292Z,52682.32
2022-12-15T01:43:47.068Z,52707.37
2022-12-15T01:44:51.675Z,52730.41
2022-12-15T01:45:57.423Z,52703.36
2022-12-15T01:47:00.318Z,52705.36
2022-12-15T01:48:03.169Z,52734.42
2022-12-15T01:49:05.744Z,52727.41
2022-12-15T01:50:08.411Z,52707.37
2022-12-15T01:51:11.079Z,52748.45
2022-12-15T01:52:13.648Z,52730.41
2022-12-15T01:53:17.031Z,52767.49
2022-12-15T01:54:19.600Z,52739.43
2022-12-15T01:55:22.271Z,52735.42
2022-12-15T01:56:24.954Z,52743.44
2022-12-15T01:57:27.504Z,52740.43
2022-12-15T01:58:30.792Z,52729.41
2022-12-15T01:59:33.559Z,52720.39
2022-12-15T02:00:36.319Z,52703.36
2022-12-15T02:01:39.117Z,52731.41
2022-12-15T02:02:41.918Z,52742.44
2022-12-15T02:03:45.078Z,52733.42
2022-12-15T02:04:47.734Z,52686.33
2022-12-15T02:05:50.298Z,52759.47
2022-12-15T02:06:52.972Z,52725.40
2022-12-15T02:07:55.538Z,52734.42
2022-12-15T02:08:58.203Z,52697.35
2022-12-15T02:10:00.877Z,52712.38
2022-12-15T02:11:03.558Z,52698.35
2022-12-15T02:12:06.221Z,52700.36
2022-12-15T02:13:08.889Z,52677.31
2022-12-15T02:14:11.350Z,52715.38
2022-12-15T02:15:14.028Z,52685.32
2022-12-15T02:16:16.758Z,52707.37
2022-12-15T02:17:19.372Z,52691.34
2022-12-15T02:18:22.032Z,52695.34
2022-12-15T02:19:24.812Z,52695.34
2022-12-15T02:20:27.371Z,52675.30
2022-12-15T02:21:30.080Z,52682.32
2022-12-15T02:22:32.710Z,52665.29
2022-12-15T02:23:35.566Z,52717.39
2022-12-15T02:24:38.254Z,52695.34
2022-12-15T02:25:41.021Z,52676.30
2022-12-15T02:26:43.797Z,52685.32
2022-12-15T02:27:46.471Z,52716.39
2022-12-15T02:28:49.146Z,52698.35
2022-12-15T02:29:52.322Z,52709.37
2022-12-15T02:30:55.192Z,52705.36
2022-12-15T02:31:58.161Z,52679.31
2022-12-15T02:33:00.848Z,52688.33
2022-12-15T02:34:03.616Z,52685.32
2022-12-15T02:35:06.277Z,52705.36
2022-12-15T02:36:08.952Z,52716.39
2022-12-15T02:37:11.729Z,52665.29
2022-12-15T02:38:14.612Z,52647.25
2022-12-15T02:39:17.482Z,52671.30
2022-12-15T02:40:20.653Z,52730.41
2022-12-15T02:41:23.223Z,52719.39
2022-12-15T02:42:26.094Z,52695.34
2022-12-15T02:43:29.412Z,52666.29
2022-12-15T02:44:32.563Z,52687.33
2022-12-15T02:45:35.798Z,52713.38
2022-12-15T02:46:38.619Z,52696.35
2022-12-15T02:47:41.599Z,52655.27
2022-12-15T02:48:44.470Z,52668.29
2022-12-15T02:49:49.741Z,52665.29
2022-12-15T02:50:51.550Z,52662.28
2022-12-15T02:51:54.132Z,52653.26
2022-12-15T02:52:56.892Z,52684.32
2022-12-15T02:53:59.662Z,52673.30
2022-12-15T02:55:02.332Z,52660.27
2022-12-15T02:56:04.908Z,52658.27
2022-12-15T02:57:07.468Z,52645.25
2022-12-15T02:58:10.044Z,52695.34
2022-12-15T02:59:12.616Z,52637.23
2022-12-15T03:00:15.790Z,52638.23
2022-12-15T03:01:18.839Z,52638.23
2022-12-15T03:02:21.952Z,52661.28
2022-12-15T03:03:24.797Z,52664.29
2022-12-15T03:04:27.590Z,52653.26
2022-12-15T03:05:30.369Z,52702.36
2022-12-15T03:06:33.145Z,52677.31
2022-12-15T03:07:36.119Z,52692.34
2022-12-15T03:08:38.679Z,52668.29
2022-12-15T03:09:41.352Z,52647.25
2022-12-15T03:10:43.912Z,52680.32
2022-12-15T03:11:46.793Z,52674.30
2022-12-15T03:12:52.540Z,52709.37
2022-12-15T03:13:55.306Z,52662.28
2022-12-15T03:14:58.091Z,52692.34
2022-12-15T03:16:01.173Z,52703.36
2022-12-15T03:17:04.244Z,52720.39
2022-12-15T03:18:07.014Z,52743.44
2022-12-15T03:19:09.678Z,52718.39
2022-12-15T03:20:12.556Z,52707.37
2022-12-15T03:21:15.120Z,52721.39
2022-12-15T03:22:17.889Z,52710.37
2022-12-15T03:23:20.457Z,52711.37
2022-12-15T03:24:23.335Z,52693.34
2022-12-15T03:25:26.107Z,52683.32
2022-12-15T03:26:28.879Z,52700.36
2022-12-15T03:27:32.059Z,52684.32
2022-12-15T03:28:34.931Z,52679.31
2022-12-15T03:29:37.603Z,52701.36
2022-12-15T03:30:40.584Z,52712.38
2022-12-15T03:31:43.559Z,52670.30
2022-12-15T03:32:46.846Z,52650.26
2022-12-15T03:33:49.628Z,52636.23
2022-12-15T03:34:52.288Z,52635.23
2022-12-15T03:35:54.959Z,52699.35
2022-12-15T03:36:57.736Z,52700.36
2022-12-15T03:38:00.500Z,52725.40
2022-12-15T03:39:03.068Z,52765.48
2022-12-15T03:40:05.863Z,52676.30
2022-12-15T03:41:08.410Z,52695.34
2022-12-15T03:42:11.177Z,52723.40
2022-12-15T03:43:14.053Z,52697.35
2022-12-15T03:44:16.932Z,52695.34
2022-12-15T03:45:19.700Z,52636.23
2022-12-15T03:46:22.824Z,52694.34
2022-12-15T03:47:25.450Z,52670.30
2022-12-15T03:48:28.537Z,52662.28
2022-12-15T03:49:31.404Z,52661.28
2022-12-15T03:50:34.280Z,52673.30
2022-12-15T03:51:37.149Z,52660.27
2022-12-15T03:52:40.040Z,52700.36
2022-12-15T03:53:43.208Z,52622.20
2022-12-15T03:54:45.982Z,52682.32
2022-12-15T03:55:48.864Z,52675.30
2022-12-15T03:56:51.834Z,52679.31
2022-12-15T03:57:55.429Z,52653.26
2022-12-15T03:58:58.604Z,52697.35
2022-12-15T04:00:01.380Z,52706.36
2022-12-15T04:01:04.183Z,52695.34
2022-12-15T04:02:07.219Z,52695.34
2022-12-15T04:03:10.892Z,52706.36
2022-12-15T04:04:14.012Z,52670.30
2022-12-15T04:05:16.787Z,52678.31
2022-12-15T04:06:19.650Z,52645.25
2022-12-15T04:07:22.525Z,52685.32
2022-12-15T04:08:25.400Z,52679.31
2022-12-15T04:09:28.583Z,52658.27
2022-12-15T04:10:34.387Z,52669.29
2022-12-15T04:11:35.564Z,52679.31
2022-12-15T04:12:38.435Z,52667.29
2022-12-15T04:13:41.208Z,52638.23
2022-12-15T04:14:44.499Z,52648.25
2022-12-15T04:15:47.276Z,52648.25
2022-12-15T04:16:50.221Z,52673.30
2022-12-15T04:17:53.115Z,52652.26
2022-12-15T04:18:55.883Z,52698.35
2022-12-15T04:19:58.971Z,52661.28
2022-12-15T04:21:01.838Z,52669.29
2022-12-15T04:22:04.613Z,52679.31
2022-12-15T04:23:07.487Z,52678.31
2022-12-15T04:24:10.055Z,52698.35
2022-12-15T04:25:12.725Z,52676.30
2022-12-15T04:26:15.399Z,52653.26
2022-12-15T04:27:18.064Z,52655.27
2022-12-15T04:28:20.738Z,52679.31
2022-12-15T04:29:23.303Z,52681.32
2022-12-15T04:30:25.764Z,52670.30
2022-12-15T04:31:28.425Z,52696.35
2022-12-15T04:32:31.106Z,52716.39
2022-12-15T04:33:34.043Z,52689.33
2022-12-15T04:34:36.854Z,52704.36
2022-12-15T04:35:39.636Z,52703.36
2022-12-15T04:36:42.195Z,52695.34
2022-12-15T04:37:44.969Z,52685.32
2022-12-15T04:38:50.314Z,52712.38
2022-12-15T04:39:51.535Z,52679.31
2022-12-15T04:40:53.993Z,52659.27
2022-12-15T04:41:56.671Z,52718.39
2022-12-15T04:42:59.342Z,52731.41
2022-12-15T04:44:02.008Z,52708.37
2022-12-15T04:45:04.682Z,52690.33
2022-12-15T04:46:07.310Z,52666.29
2022-12-15T04:47:09.919Z,52688.33
2022-12-15T04:48:12.588Z,52673.30
2022-12-15T04:49:15.459Z,52660.27
2022-12-15T04:50:18.236Z,52638.23
2022-12-15T04:51:23.726Z,52688.33
2022-12-15T04:52:25.726Z,52695.34
2022-12-15T04:53:29.143Z,52684.32
2022-12-15T04:54:32.294Z,52686.33
2022-12-15T04:55:35.173Z,52691.34
2022-12-15T04:56:37.937Z,52687.33
2022-12-15T04:57:40.718Z,52720.39
2022-12-15T04:58:43.586Z,52708.37
2022-12-15T04:59:46.358Z,52709.37
2022-12-15T05:00:49.248Z,52704.36
2022-12-15T05:01:52.439Z,52671.30
2022-12-15T05:02:55.391Z,52722.40
2022-12-15T05:03:58.196Z,52742.44
2022-12-15T05:05:01.050Z,52707.37
2022-12-15T05:06:03.810Z,52713.38
2022-12-15T05:07:06.994Z,52676.30
2022-12-15T05:08:09.864Z,52694.34
2022-12-15T05:09:12.740Z,52678.31
2022-12-15T05:10:15.582Z,52663.28
2022-12-15T05:11:18.182Z,52706.36
2022-12-15T05:12:20.850Z,52699.35
2022-12-15T05:13:23.421Z,52710.37
2022-12-15T05:14:25.993Z,52674.30
2022-12-15T05:15:28.696Z,52707.37
2022-12-15T05:16:31.324Z,52684.32
2022-12-15T05:17:38.329Z,52716.39
2022-12-15T05:18:38.823Z,52697.35
2022-12-15T05:19:41.794Z,52708.37
2022-12-15T05:20:44.774Z,52742.44
2022-12-15T05:21:47.748Z,52721.39
2022-12-15T05:22:51.032Z,52705.36
2022-12-15T05:23:53.919Z,52708.37
2022-12-15T05:24:56.786Z,52734.42
2022-12-15T05:25:59.762Z,52745.44
2022-12-15T05:27:02.634Z,52734.42
2022-12-15T05:28:05.507Z,52781.52
2022-12-15T05:29:07.955Z,52789.53
2022-12-15T05:30:10.750Z,52780.51
2022-12-15T05:31:13.722Z,52802.55
2022-12-15T05:32:16.494Z,52807.57
2022-12-15T05:33:19.574Z,52781.52
2022-12-15T05:34:22.349Z,52828.61
2022-12-15T05:35:25.238Z,52765.48
2022-12-15T05:36:27.990Z,52790.53
2022-12-15T05:37:30.766Z,52811.57
2022-12-15T05:38:33.866Z,52805.56
2022-12-15T05:39:36.695Z,52789.53
2022-12-15T05:40:39.705Z,52807.57
2022-12-15T05:41:42.573Z,52776.50
2022-12-15T05:42:50.224Z,52775.50
2022-12-15T05:43:50.060Z,52749.45
2022-12-15T05:44:52.831Z,52771.50
2022-12-15T05:45:55.758Z,52759.47
2022-12-15T05:46:58.589Z,52746.45
2022-12-15T05:48:01.361Z,52707.37
2022-12-15T05:49:04.450Z,52711.37
2022-12-15T05:50:07.206Z,52730.41
2022-12-15T05:51:10.086Z,52755.46
2022-12-15T05:52:12.950Z,52683.32
2022-12-15T05:53:15.933Z,52693.34
2022-12-15T05:54:19.011Z,52719.39
2022-12-15T05:55:21.795Z,52719.39
2022-12-15T05:56:24.568Z,52693.34
2022-12-15T05:57:27.639Z,52694.34
2022-12-15T05:58:30.210Z,52654.27
2022-12-15T05:59:33.075Z,52689.33
2022-12-15T06:00:35.751Z,52681.32
2022-12-15T06:01:38.374Z,52681.32
2022-12-15T06:02:41.040Z,52701.36
2022-12-15T06:03:43.652Z,52706.36
2022-12-15T06:04:46.479Z,52800.55
2022-12-15T06:05:54.705Z,52728.41
2022-12-15T06:06:53.510Z,52743.44
2022-12-15T06:07:56.034Z,52689.33
2022-12-15T06:08:58.851Z,52728.41
2022-12-15T06:10:02.127Z,52740.43
2022-12-15T06:11:05.003Z,52793.54
2022-12-15T06:12:07.880Z,52783.52
2022-12-15T06:13:10.650Z,52827.61
2022-12-15T06:14:13.531Z,52824.60
2022-12-15T06:15:16.607Z,52732.42
2022-12-15T06:16:19.537Z,52794.54
2022-12-15T06:17:22.353Z,52828.61
2022-12-15T06:18:25.232Z,52854.66
2022-12-15T06:19:28.108Z,52896.74
2022-12-15T06:20:31.386Z,52902.76
2022-12-15T06:21:34.272Z,52888.73
2022-12-15T06:22:37.143Z,52941.84
2022-12-15T06:23:39.911Z,52897.75
2022-12-15T06:24:42.692Z,52924.80
2022-12-15T06:25:45.862Z,52921.79
2022-12-15T06:26:49.758Z,52940.83
2022-12-15T06:27:55.868Z,52910.77
2022-12-15T06:28:57.252Z,52935.82
2022-12-15T06:30:00.343Z,52961.87
2022-12-15T06:31:03.727Z,52956.86
2022-12-15T06:32:06.494Z,52968.89
2022-12-15T06:33:09.264Z,52950.85
2022-12-15T06:34:12.238Z,53005.96
2022-12-15T06:35:15.113Z,52906.77
2022-12-15T06:36:18.297Z,52887.73
2022-12-15T06:37:21.171Z,52882.71
2022-12-15T06:38:23.949Z,52847.64
2022-12-15T06:39:26.720Z,52867.68
2022-12-15T06:40:32.166Z,52855.66
2022-12-15T06:41:33.997Z,52879.71
2022-12-15T06:42:36.775Z,52926.80
2022-12-15T06:43:39.653Z,52863.68
2022-12-15T06:44:42.420Z,52848.65
2022-12-15T06:45:45.301Z,52776.50
2022-12-15T06:46:50.083Z,52796.54
2022-12-15T06:47:56.580Z,52810.57
2022-12-15T06:48:57.405Z,52756.46
2022-12-15T06:50:00.101Z,52771.50
2022-12-15T06:51:02.753Z,52720.39
2022-12-15T06:52:05.410Z,52698.35
2022-12-15T06:53:08.092Z,52688.33
2022-12-15T06:54:10.751Z,52741.43
2022-12-15T06:55:13.321Z,52742.44
2022-12-15T06:56:16.105Z,52732.42
2022-12-15T06:57:18.655Z,52710.37
2022-12-15T06:58:21.531Z,52762.48
2022-12-15T06:59:24.303Z,52769.49
2022-12-15T07:00:27.185Z,52783.52
2022-12-15T07:01:30.562Z,52801.55
2022-12-15T07:02:34.105Z,52795.54
2022-12-15T07:03:38.011Z,52807.57
2022-12-15T07:04:41.454Z,52788.53
2022-12-15T07:05:44.419Z,52795.54
2022-12-15T07:06:47.291Z,52805.56
2022-12-15T07:07:50.175Z,52849.65
2022-12-15T07:08:53.041Z,52810.57
2022-12-15T07:09:55.824Z,52839.63
2022-12-15T07:10:58.689Z,52849.65
2022-12-15T07:12:01.463Z,52831.61
2022-12-15T07:13:04.647Z,52841.63
2022-12-15T07:14:07.523Z,52897.75
2022-12-15T07:15:10.497Z,52845.64
2022-12-15T07:16:13.444Z,52858.67
2022-12-15T07:17:16.049Z,52866.68
2022-12-15T07:18:18.813Z,52879.71
2022-12-15T07:19:21.488Z,52933.82
2022-12-15T07:20:28.792Z,52913.78
2022-12-15T07:21:28.872Z,52947.85
2022-12-15T07:22:31.652Z,52944.84
2022-12-15T07:23:53.101Z,52856.66
2022-12-15T07:24:38.931Z,52921.79
2022-12-15T07:25:41.908Z,52895.74
2022-12-15T07:26:44.893Z,52933.82
2022-12-15T07:27:47.755Z,52897.75
2022-12-15T07:28:50.633Z,52890.73
2022-12-15T07:29:53.193Z,52924.80
2022-12-15T07:30:56.075Z,52924.80
2022-12-15T07:31:59.914Z,52888.73
2022-12-15T07:33:02.546Z,52918.79
2022-12-15T07:34:05.422Z,52898.75
2022-12-15T07:35:07.988Z,52898.75
2022-12-15T07:36:10.553Z,52877.71
2022-12-15T07:37:13.226Z,52914.78
2022-12-15T07:38:15.889Z,52946.84
2022-12-15T07:39:18.478Z,52926.80
2022-12-15T07:40:21.126Z,52908.77
2022-12-15T07:41:23.895Z,52897.75
2022-12-15T07:42:26.566Z,52887.73
2022-12-15T07:43:29.872Z,52940.83
2022-12-15T07:44:32.670Z,52887.73
2022-12-15T07:45:35.387Z,52946.84
2022-12-15T07:46:38.169Z,52949.85
2022-12-15T07:47:40.736Z,52996.95
2022-12-15T07:48:43.307Z,52993.94
2022-12-15T07:49:46.075Z,52969.89
2022-12-15T07:50:48.848Z,52944.84
2022-12-15T07:51:53.054Z,52930.81
2022-12-15T07:52:55.521Z,52987.93
2022-12-15T07:53:58.187Z,52957.87
2022-12-15T07:55:00.858Z,52955.86
2022-12-15T07:56:08.409Z,53011.98
2022-12-15T07:57:07.838Z,53004.96
2022-12-15T07:58:10.710Z,53001.96
2022-12-15T07:59:13.484Z,52999.95
2022-12-15T08:00:16.573Z,52985.92
2022-12-15T08:01:19.595Z,53036.03
2022-12-15T08:02:22.882Z,53058.07
2022-12-15T08:03:25.714Z,53120.20
2022-12-15T08:04:28.469Z,53126.21
2022-12-15T08:05:31.655Z,53101.16
2022-12-15T08:06:34.228Z,53194.35
2022-12-15T08:07:37.091Z,53146.25
2022-12-15T08:08:40.122Z,53148.26
2022-12-15T08:09:42.850Z,53177.32
2022-12-15T08:10:45.820Z,53164.29
2022-12-15T08:11:48.692Z,53236.44
2022-12-15T08:12:51.368Z,53316.61
2022-12-15T08:14:03.081Z,53375.73
2022-12-15T08:14:58.551Z,53447.89
2022-12-15T08:16:01.659Z,53525.05
2022-12-15T08:17:04.589Z,53573.16
2022-12-15T08:18:07.373Z,53677.39
2022-12-15T08:19:10.257Z,53663.36
2022-12-15T08:20:12.932Z,53593.21
2022-12-15T08:21:15.492Z,53598.21
2022-12-15T08:22:18.158Z,53590.20
2022-12-15T08:23:20.721Z,53592.20
2022-12-15T08:24:23.391Z,53621.27
2022-12-15T08:25:26.062Z,53679.39
2022-12-15T08:26:30.884Z,53823.71
2022-12-15T08:27:32.957Z,53882.85
2022-12-15T08:28:35.510Z,53964.04
2022-12-15T08:29:53.538Z,54037.20
2022-12-15T08:30:42.594Z,54159.48
2022-12-15T08:31:45.709Z,54311.84
2022-12-15T08:32:52.101Z,54462.20
2022-12-15T08:33:53.363Z,54647.65
2022-12-15T08:34:56.147Z,54877.22
2022-12-15T08:35:58.915Z,55060.68
2022-12-15T08:37:01.889Z,55163.95
2022-12-15T08:38:05.809Z,55242.15
2022-12-15T08:39:08.872Z,55265.21
2022-12-15T08:40:11.643Z,55322.36
2022-12-15T08:41:14.514Z,55379.51
2022-12-15T08:42:17.598Z,55477.77
2022-12-15T08:43:20.565Z,55552.97
2022-12-15T08:44:23.145Z,55624.16
2022-12-15T08:45:25.906Z,55567.01
2022-12-15T08:46:28.671Z,55555.98
2022-12-15T08:47:31.657Z,55580.04
2022-12-15T08:48:34.327Z,55641.21
2022-12-15T08:49:36.795Z,55666.28
2022-12-15T08:50:39.888Z,55638.20
2022-12-15T08:51:43.769Z,55697.36
2022-12-15T08:53:00.897Z,55649.23
2022-12-15T08:53:51.372Z,55626.17
2022-12-15T08:54:54.132Z,55611.13
2022-12-15T08:55:56.704Z,55574.03
2022-12-15T08:56:59.472Z,55527.90
2022-12-15T08:58:02.654Z,55531.91
2022-12-15T08:59:05.532Z,55536.93
2022-12-15T09:00:08.189Z,55510.86
2022-12-15T09:01:11.072Z,55496.82
2022-12-15T09:02:13.993Z,55484.79
2022-12-15T09:03:16.615Z,55515.87
2022-12-15T09:04:19.550Z,55590.07
2022-12-15T09:05:22.366Z,55636.20
2022-12-15T09:06:25.136Z,55697.36
2022-12-15T09:07:27.807Z,55674.30
2022-12-15T09:08:30.936Z,55743.48
2022-12-15T09:09:33.760Z,55816.69
2022-12-15T09:10:36.330Z,55842.76
2022-12-15T09:11:38.999Z,55896.91
2022-12-15T09:12:41.666Z,55988.16
2022-12-15T09:13:44.751Z,56050.34
2022-12-15T09:14:47.317Z,56041.31
2022-12-15T09:16:54.327Z,56229.84
2022-12-15T09:17:56.964Z,56297.04
2022-12-15T09:18:59.841Z,56338.15
2022-12-15T09:20:02.924Z,56359.21
2022-12-15T09:21:05.690Z,56426.41
2022-12-15T09:22:08.464Z,56519.68
2022-12-15T09:23:11.746Z,56564.81
2022-12-15T09:24:22.159Z,56573.84
2022-12-15T09:25:19.135Z,56612.95
2022-12-15T09:26:21.705Z,56634.02
2022-12-15T09:27:24.294Z,56676.14
2022-12-15T09:28:27.042Z,56713.25
2022-12-15T09:29:30.125Z,56677.14
2022-12-15T09:30:32.980Z,56680.15
2022-12-15T09:31:35.766Z,56777.44
2022-12-15T09:32:38.640Z,56862.70
2022-12-15T09:33:41.115Z,56978.04
2022-12-15T09:34:44.187Z,57016.16
2022-12-15T09:35:46.860Z,57070.32
2022-12-15T09:36:49.734Z,57136.53
2022-12-15T09:37:52.506Z,57159.60
2022-12-15T09:38:55.314Z,57206.75
2022-12-15T09:39:58.252Z,57273.95
2022-12-15T09:41:01.132Z,57339.16
2022-12-15T09:42:04.000Z,57413.39
2022-12-15T09:43:33.275Z,57422.42
2022-12-15T09:44:11.185Z,57420.41
2022-12-15T09:45:14.161Z,57410.38
2022-12-15T09:46:17.049Z,57465.55
2022-12-15T09:47:19.810Z,57477.59
2022-12-15T09:48:22.377Z,57469.57
2022-12-15T09:49:25.052Z,57503.68
2022-12-15T09:50:28.040Z,57538.79
2022-12-15T09:51:30.794Z,57606.00
2022-12-15T09:52:33.674Z,57620.05
2022-12-15T09:54:40.577Z,57711.34
2022-12-15T09:55:44.036Z,57689.27
2022-12-15T09:56:49.900Z,57767.52
2022-12-15T09:57:52.551Z,57818.69
2022-12-15T09:58:55.730Z,57792.60
2022-12-15T09:59:58.504Z,57808.65
2022-12-15T10:01:01.274Z,57756.48
2022-12-15T10:02:03.988Z,57720.37
2022-12-15T10:03:06.811Z,57709.33
2022-12-15T10:04:09.692Z,57695.29
2022-12-15T10:05:12.272Z,57670.21
2022-12-15T10:06:17.071Z,57611.02
2022-12-15T10:07:19.656Z,57606.00
2022-12-15T10:08:22.317Z,57588.95
2022-12-15T10:09:24.891Z,57524.74
2022-12-15T10:10:27.658Z,57472.58
2022-12-15T10:11:30.845Z,57482.61
2022-12-15T10:12:33.511Z,57489.63
2022-12-15T10:13:36.184Z,57543.80
2022-12-15T10:14:38.975Z,57515.71
2022-12-15T10:15:41.569Z,57513.71
2022-12-15T10:16:44.495Z,57493.64
2022-12-15T10:17:50.155Z,57494.64
2022-12-15T10:18:53.668Z,57520.73
2022-12-15T10:19:55.575Z,57549.82
2022-12-15T10:20:58.248Z,57542.80
2022-12-15T10:22:01.431Z,57537.78
2022-12-15T10:23:04.101Z,57545.81
2022-12-15T10:24:06.804Z,57539.79
2022-12-15T10:25:10.806Z,57535.78
2022-12-15T10:26:13.646Z,57507.69
2022-12-15T10:27:16.637Z,57459.54
2022-12-15T10:28:19.290Z,57426.43
2022-12-15T10:29:21.967Z,57377.28
2022-12-15T10:30:24.918Z,57385.30
2022-12-15T10:31:28.187Z,57338.16
2022-12-15T10:32:31.207Z,57305.05
2022-12-15T10:33:35.765Z,57313.07
2022-12-15T10:34:38.727Z,57291.01
2022-12-15T10:35:41.376Z,57193.70
2022-12-15T10:36:44.230Z,57133.52
2022-12-15T10:37:48.131Z,57124.49
2022-12-15T10:38:52.336Z,57040.23
2022-12-15T10:39:55.224Z,57053.27
2022-12-15T10:40:57.985Z,57028.20
2022-12-15T10:42:00.856Z,56991.09
2022-12-15T10:43:03.960Z,56974.03
2022-12-15T10:44:06.717Z,57007.13
2022-12-15T10:45:09.587Z,56990.08
2022-12-15T10:46:12.317Z,56974.03
2022-12-15T10:47:15.133Z,56910.84
2022-12-15T10:48:18.313Z,56943.94
2022-12-15T10:49:21.088Z,56935.92
2022-12-15T10:50:25.259Z,56945.95
2022-12-15T10:51:28.266Z,56937.92
2022-12-15T10:52:31.159Z,56980.05
2022-12-15T10:53:34.354Z,56946.95
2022-12-15T10:54:37.230Z,56871.72
2022-12-15T10:55:39.767Z,56818.56
2022-12-15T10:56:42.335Z,56743.34
2022-12-15T10:57:44.901Z,56710.24
2022-12-15T10:58:50.156Z,56705.23
2022-12-15T10:59:53.002Z,56633.01
2022-12-15T11:00:55.676Z,56665.11
2022-12-15T11:01:58.388Z,56721.27
2022-12-15T11:03:01.707Z,56718.26
2022-12-15T11:04:04.882Z,56739.33
2022-12-15T11:05:07.896Z,56801.51
2022-12-15T11:06:10.660Z,56815.55
2022-12-15T11:07:13.540Z,56885.77
2022-12-15T11:08:16.315Z,56927.89
2022-12-15T11:09:19.496Z,56895.79
2022-12-15T11:10:22.593Z,56897.80
2022-12-15T11:11:26.684Z,56901.81
2022-12-15T11:12:29.655Z,56939.93
2022-12-15T11:13:35.030Z,56968.01
2022-12-15T11:14:36.942Z,56993.09
2022-12-15T11:15:39.696Z,57026.19
2022-12-15T11:16:42.482Z,56999.11
2022-12-15T11:17:45.152Z,57046.25
2022-12-15T11:18:48.837Z,57043.24
2022-12-15T11:19:55.260Z,57047.25
2022-12-15T11:20:56.234Z,57094.40
2022-12-15T11:21:59.119Z,57061.30
2022-12-15T11:23:01.779Z,57072.33
2022-12-15T11:24:04.652Z,57055.28
2022-12-15T11:25:07.936Z,57033.21
2022-12-15T11:26:10.504Z,57007.13
2022-12-15T11:27:13.171Z,56968.01
2022-12-15T11:28:15.950Z,56919.87
2022-12-15T11:29:18.722Z,56823.58
2022-12-15T11:30:22.006Z,56750.36
2022-12-15T11:31:24.883Z,56718.26
2022-12-15T11:32:27.449Z,56667.11
2022-12-15T11:33:30.915Z,56617.97
2022-12-15T11:34:34.120Z,56557.79
2022-12-15T11:35:37.198Z,56510.65
2022-12-15T11:36:39.968Z,56452.48
2022-12-15T11:37:42.749Z,56418.38
2022-12-15T11:38:45.647Z,56389.30
2022-12-15T11:39:48.639Z,56382.28
2022-12-15T11:40:51.360Z,56418.38
2022-12-15T11:41:54.035Z,56448.47
2022-12-15T11:42:56.805Z,56483.57
2022-12-15T11:44:04.310Z,56523.69
2022-12-15T11:45:03.674Z,56570.83
2022-12-15T11:46:06.755Z,56626.99
2022-12-15T11:47:09.473Z,56735.32
2022-12-15T11:48:11.999Z,56802.52
2022-12-15T11:49:14.668Z,56814.55
2022-12-15T11:50:17.341Z,56817.56
2022-12-15T11:51:20.317Z,56793.49
2022-12-15T11:52:23.594Z,56803.52
2022-12-15T11:53:26.472Z,56842.64
2022-12-15T11:54:29.144Z,56884.76
2022-12-15T11:55:37.561Z,56928.89
2022-12-15T11:56:36.547Z,57010.14
2022-12-15T11:57:39.301Z,57000.11
2022-12-15T11:58:42.176Z,57050.27
2022-12-15T11:59:44.977Z,57066.31
2022-12-15T12:00:48.335Z,57091.39
2022-12-15T12:01:58.867Z,57094.40
2022-12-15T12:02:56.291Z,57076.34
2022-12-15T12:03:59.119Z,57081.36
2022-12-15T12:05:01.983Z,57125.50
2022-12-15T12:06:04.561Z,57200.73
2022-12-15T12:07:07.128Z,57279.97
2022-12-15T12:08:09.991Z,57274.96
2022-12-15T12:09:12.666Z,57258.91
2022-12-15T12:10:15.233Z,57283.98
2022-12-15T12:11:17.778Z,57277.96
2022-12-15T12:12:20.877Z,57326.12
2022-12-15T12:13:23.785Z,57387.31
2022-12-15T12:14:27.856Z,57374.27
2022-12-15T12:15:33.290Z,57425.43
2022-12-15T12:16:35.860Z,57331.13
2022-12-15T12:17:38.938Z,57265.93
2022-12-15T12:18:42.019Z,57165.62
2022-12-15T12:19:45.061Z,57084.37
2022-12-15T12:20:49.408Z,57026.19